sensor_id;sensor_type;location;lat;lon;timestamp;P1;durP1;ratioP1;P2;durP2;ratioP2
47824;SDS011;33589;48.242;14.676;2024-01-06T00:01:37;6.80;;;4.30;;
47824;SDS011;33589;48.242;14.676;2024-01-06T00:04:02;4.60;;;3.83;;
47824;SDS011;33589;48.242;14.676;2024-01-06T00:06:28;5.47;;;3.97;;
47824;SDS011;33589;48.242;14.676;2024-01-06T00:08:54;5.78;;;4.30;;
47824;SDS011;33589;48.242;14.676;2024-01-06T00:11:20;5.65;;;4.20;;
47824;SDS011;33589;48.242;14.676;2024-01-06T00:13:46;4.82;;;4.00;;
47824;SDS011;33589;48.242;14.676;2024-01-06T00:16:13;6.47;;;4.22;;
47824;SDS011;33589;48.242;14.676;2024-01-06T00:18:41;5.00;;;3.90;;
47824;SDS011;33589;48.242;14.676;2024-01-06T00:21:07;7.20;;;4.50;;
47824;SDS011;33589;48.242;14.676;2024-01-06T00:23:33;5.22;;;3.83;;
47824;SDS011;33589;48.242;14.676;2024-01-06T00:25:59;6.38;;;3.90;;
47824;SDS011;33589;48.242;14.676;2024-01-06T00:28:25;6.28;;;3.90;;
47824;SDS011;33589;48.242;14.676;2024-01-06T00:30:51;5.50;;;3.95;;
47824;SDS011;33589;48.242;14.676;2024-01-06T00:33:16;7.80;;;4.50;;
47824;SDS011;33589;48.242;14.676;2024-01-06T00:35:42;6.28;;;4.00;;
47824;SDS011;33589;48.242;14.676;2024-01-06T00:38:08;7.30;;;4.78;;
47824;SDS011;33589;48.242;14.676;2024-01-06T00:40:34;6.55;;;4.00;;
47824;SDS011;33589;48.242;14.676;2024-01-06T00:43:00;5.07;;;4.07;;
47824;SDS011;33589;48.242;14.676;2024-01-06T00:45:26;4.22;;;3.63;;
47824;SDS011;33589;48.242;14.676;2024-01-06T00:47:51;5.75;;;4.05;;
47824;SDS011;33589;48.242;14.676;2024-01-06T00:50:17;7.07;;;4.20;;
47824;SDS011;33589;48.242;14.676;2024-01-06T00:52:44;6.63;;;4.40;;
47824;SDS011;33589;48.242;14.676;2024-01-06T00:55:10;5.30;;;4.00;;
47824;SDS011;33589;48.242;14.676;2024-01-06T00:57:36;4.20;;;3.80;;
47824;SDS011;33589;48.242;14.676;2024-01-06T01:00:05;6.13;;;4.22;;
47824;SDS011;33589;48.242;14.676;2024-01-06T01:02:31;4.85;;;3.95;;
47824;SDS011;33589;48.242;14.676;2024-01-06T01:04:57;5.47;;;4.10;;
47824;SDS011;33589;48.242;14.676;2024-01-06T01:07:23;5.45;;;3.97;;
47824;SDS011;33589;48.242;14.676;2024-01-06T01:09:49;6.32;;;4.28;;
47824;SDS011;33589;48.242;14.676;2024-01-06T01:12:15;5.20;;;3.90;;
47824;SDS011;33589;48.242;14.676;2024-01-06T01:14:41;4.65;;;3.85;;
47824;SDS011;33589;48.242;14.676;2024-01-06T01:17:06;4.95;;;3.70;;
47824;SDS011;33589;48.242;14.676;2024-01-06T01:19:32;5.40;;;4.25;;
47824;SDS011;33589;48.242;14.676;2024-01-06T01:21:58;5.30;;;3.65;;
47824;SDS011;33589;48.242;14.676;2024-01-06T01:24:24;5.18;;;3.92;;
47824;SDS011;33589;48.242;14.676;2024-01-06T01:26:50;5.32;;;3.88;;
47824;SDS011;33589;48.242;14.676;2024-01-06T01:29:16;5.90;;;4.07;;
47824;SDS011;33589;48.242;14.676;2024-01-06T01:31:42;5.28;;;4.03;;
47824;SDS011;33589;48.242;14.676;2024-01-06T01:34:08;7.13;;;4.05;;
47824;SDS011;33589;48.242;14.676;2024-01-06T01:36:33;6.32;;;3.90;;
47824;SDS011;33589;48.242;14.676;2024-01-06T01:38:59;6.28;;;4.00;;
47824;SDS011;33589;48.242;14.676;2024-01-06T01:41:25;4.65;;;3.95;;
47824;SDS011;33589;48.242;14.676;2024-01-06T01:43:51;4.57;;;3.50;;
47824;SDS011;33589;48.242;14.676;2024-01-06T01:46:26;4.88;;;3.92;;
47824;SDS011;33589;48.242;14.676;2024-01-06T01:48:56;5.03;;;3.65;;
47824;SDS011;33589;48.242;14.676;2024-01-06T01:51:23;6.55;;;3.90;;
47824;SDS011;33589;48.242;14.676;2024-01-06T01:53:51;4.43;;;3.70;;
47824;SDS011;33589;48.242;14.676;2024-01-06T01:56:17;4.50;;;4.00;;
47824;SDS011;33589;48.242;14.676;2024-01-06T01:58:45;8.73;;;3.90;;
47824;SDS011;33589;48.242;14.676;2024-01-06T02:01:11;4.28;;;3.70;;
47824;SDS011;33589;48.242;14.676;2024-01-06T02:03:38;4.60;;;3.70;;
47824;SDS011;33589;48.242;14.676;2024-01-06T02:06:06;4.50;;;3.65;;
47824;SDS011;33589;48.242;14.676;2024-01-06T02:08:32;6.22;;;3.90;;
47824;SDS011;33589;48.242;14.676;2024-01-06T02:10:57;5.57;;;3.92;;
47824;SDS011;33589;48.242;14.676;2024-01-06T02:13:24;4.72;;;3.53;;
47824;SDS011;33589;48.242;14.676;2024-01-06T02:15:49;4.80;;;3.75;;
47824;SDS011;33589;48.242;14.676;2024-01-06T02:18:15;7.97;;;3.92;;
47824;SDS011;33589;48.242;14.676;2024-01-06T02:20:42;4.85;;;3.97;;
47824;SDS011;33589;48.242;14.676;2024-01-06T02:23:09;4.95;;;3.78;;
47824;SDS011;33589;48.242;14.676;2024-01-06T02:25:35;5.57;;;3.72;;
47824;SDS011;33589;48.242;14.676;2024-01-06T02:28:01;4.82;;;3.95;;
47824;SDS011;33589;48.242;14.676;2024-01-06T02:30:27;3.45;;;3.15;;
47824;SDS011;33589;48.242;14.676;2024-01-06T02:32:53;5.22;;;3.65;;
47824;SDS011;33589;48.242;14.676;2024-01-06T02:35:19;4.60;;;3.90;;
47824;SDS011;33589;48.242;14.676;2024-01-06T02:37:46;4.95;;;3.65;;
47824;SDS011;33589;48.242;14.676;2024-01-06T02:40:11;4.88;;;3.80;;
47824;SDS011;33589;48.242;14.676;2024-01-06T02:42:38;5.80;;;3.90;;
47824;SDS011;33589;48.242;14.676;2024-01-06T02:45:04;4.70;;;3.85;;
47824;SDS011;33589;48.242;14.676;2024-01-06T02:47:30;4.57;;;3.85;;
47824;SDS011;33589;48.242;14.676;2024-01-06T02:49:56;4.13;;;3.65;;
47824;SDS011;33589;48.242;14.676;2024-01-06T02:52:22;6.80;;;3.53;;
47824;SDS011;33589;48.242;14.676;2024-01-06T02:54:48;4.25;;;3.50;;
47824;SDS011;33589;48.242;14.676;2024-01-06T02:57:14;4.05;;;3.47;;
47824;SDS011;33589;48.242;14.676;2024-01-06T02:59:40;4.90;;;3.78;;
47824;SDS011;33589;48.242;14.676;2024-01-06T03:02:06;5.90;;;3.67;;
47824;SDS011;33589;48.242;14.676;2024-01-06T03:04:32;4.03;;;3.47;;
47824;SDS011;33589;48.242;14.676;2024-01-06T03:06:58;3.83;;;3.50;;
47824;SDS011;33589;48.242;14.676;2024-01-06T03:09:23;5.80;;;3.60;;
47824;SDS011;33589;48.242;14.676;2024-01-06T03:11:49;6.30;;;3.75;;
47824;SDS011;33589;48.242;14.676;2024-01-06T03:14:15;4.82;;;3.53;;
47824;SDS011;33589;48.242;14.676;2024-01-06T03:16:41;4.00;;;3.60;;
47824;SDS011;33589;48.242;14.676;2024-01-06T03:19:07;4.18;;;3.40;;
47824;SDS011;33589;48.242;14.676;2024-01-06T03:21:32;4.30;;;3.30;;
47824;SDS011;33589;48.242;14.676;2024-01-06T03:23:58;4.47;;;3.50;;
47824;SDS011;33589;48.242;14.676;2024-01-06T03:26:25;4.32;;;3.42;;
47824;SDS011;33589;48.242;14.676;2024-01-06T03:28:50;6.15;;;3.72;;
47824;SDS011;33589;48.242;14.676;2024-01-06T03:31:16;3.78;;;3.05;;
47824;SDS011;33589;48.242;14.676;2024-01-06T03:33:44;4.10;;;3.42;;
47824;SDS011;33589;48.242;14.676;2024-01-06T03:36:12;3.88;;;3.45;;
47824;SDS011;33589;48.242;14.676;2024-01-06T03:38:41;4.15;;;3.30;;
47824;SDS011;33589;48.242;14.676;2024-01-06T03:41:06;4.55;;;3.45;;
47824;SDS011;33589;48.242;14.676;2024-01-06T03:43:32;5.07;;;3.47;;
47824;SDS011;33589;48.242;14.676;2024-01-06T03:45:58;4.22;;;3.33;;
47824;SDS011;33589;48.242;14.676;2024-01-06T03:48:25;5.07;;;3.60;;
47824;SDS011;33589;48.242;14.676;2024-01-06T03:50:51;4.40;;;3.25;;
47824;SDS011;33589;48.242;14.676;2024-01-06T03:53:17;4.40;;;3.42;;
47824;SDS011;33589;48.242;14.676;2024-01-06T03:55:42;5.82;;;3.58;;
47824;SDS011;33589;48.242;14.676;2024-01-06T03:58:08;4.82;;;3.42;;
47824;SDS011;33589;48.242;14.676;2024-01-06T04:00:34;4.10;;;3.50;;
47824;SDS011;33589;48.242;14.676;2024-01-06T04:03:00;4.50;;;3.38;;
47824;SDS011;33589;48.242;14.676;2024-01-06T04:05:25;5.80;;;3.50;;
47824;SDS011;33589;48.242;14.676;2024-01-06T04:07:51;3.50;;;3.10;;
47824;SDS011;33589;48.242;14.676;2024-01-06T04:10:17;6.13;;;3.67;;
47824;SDS011;33589;48.242;14.676;2024-01-06T04:12:43;4.57;;;3.45;;
47824;SDS011;33589;48.242;14.676;2024-01-06T04:15:08;5.57;;;3.53;;
47824;SDS011;33589;48.242;14.676;2024-01-06T04:17:34;3.90;;;3.38;;
47824;SDS011;33589;48.242;14.676;2024-01-06T04:20:00;4.18;;;3.35;;
47824;SDS011;33589;48.242;14.676;2024-01-06T04:22:26;3.53;;;3.22;;
47824;SDS011;33589;48.242;14.676;2024-01-06T04:24:51;5.00;;;3.55;;
47824;SDS011;33589;48.242;14.676;2024-01-06T04:27:17;4.70;;;3.53;;
47824;SDS011;33589;48.242;14.676;2024-01-06T04:29:43;5.85;;;3.50;;
47824;SDS011;33589;48.242;14.676;2024-01-06T04:32:09;5.68;;;3.30;;
47824;SDS011;33589;48.242;14.676;2024-01-06T04:34:35;5.38;;;3.80;;
47824;SDS011;33589;48.242;14.676;2024-01-06T04:37:00;4.53;;;3.60;;
47824;SDS011;33589;48.242;14.676;2024-01-06T04:39:26;3.55;;;3.10;;
47824;SDS011;33589;48.242;14.676;2024-01-06T04:41:52;3.80;;;3.08;;
47824;SDS011;33589;48.242;14.676;2024-01-06T04:44:20;3.85;;;3.30;;
47824;SDS011;33589;48.242;14.676;2024-01-06T04:46:46;5.55;;;3.50;;
47824;SDS011;33589;48.242;14.676;2024-01-06T04:49:12;3.92;;;3.20;;
47824;SDS011;33589;48.242;14.676;2024-01-06T04:51:37;3.85;;;3.17;;
47824;SDS011;33589;48.242;14.676;2024-01-06T04:54:03;5.32;;;3.55;;
47824;SDS011;33589;48.242;14.676;2024-01-06T04:56:29;4.68;;;3.20;;
47824;SDS011;33589;48.242;14.676;2024-01-06T04:58:55;3.53;;;3.22;;
47824;SDS011;33589;48.242;14.676;2024-01-06T05:01:22;5.15;;;3.30;;
47824;SDS011;33589;48.242;14.676;2024-01-06T05:03:48;2.97;;;2.67;;
47824;SDS011;33589;48.242;14.676;2024-01-06T05:06:14;4.47;;;3.47;;
47824;SDS011;33589;48.242;14.676;2024-01-06T05:08:40;4.22;;;3.50;;
47824;SDS011;33589;48.242;14.676;2024-01-06T05:11:10;4.05;;;3.55;;
47824;SDS011;33589;48.242;14.676;2024-01-06T05:13:36;4.35;;;3.13;;
47824;SDS011;33589;48.242;14.676;2024-01-06T05:16:02;3.30;;;3.00;;
47824;SDS011;33589;48.242;14.676;2024-01-06T05:18:29;3.90;;;3.38;;
47824;SDS011;33589;48.242;14.676;2024-01-06T05:20:54;6.07;;;3.15;;
47824;SDS011;33589;48.242;14.676;2024-01-06T05:23:21;4.10;;;3.47;;
47824;SDS011;33589;48.242;14.676;2024-01-06T05:25:47;3.40;;;3.10;;
47824;SDS011;33589;48.242;14.676;2024-01-06T05:28:13;4.97;;;3.10;;
47824;SDS011;33589;48.242;14.676;2024-01-06T05:30:38;3.53;;;3.20;;
47824;SDS011;33589;48.242;14.676;2024-01-06T05:33:04;4.28;;;3.50;;
47824;SDS011;33589;48.242;14.676;2024-01-06T05:35:30;4.15;;;3.30;;
47824;SDS011;33589;48.242;14.676;2024-01-06T05:37:56;5.22;;;3.25;;
47824;SDS011;33589;48.242;14.676;2024-01-06T05:40:22;3.30;;;3.00;;
47824;SDS011;33589;48.242;14.676;2024-01-06T05:42:48;5.40;;;3.15;;
47824;SDS011;33589;48.242;14.676;2024-01-06T05:45:13;4.57;;;3.17;;
47824;SDS011;33589;48.242;14.676;2024-01-06T05:47:39;4.28;;;3.20;;
47824;SDS011;33589;48.242;14.676;2024-01-06T05:50:05;3.63;;;3.28;;
47824;SDS011;33589;48.242;14.676;2024-01-06T05:52:34;3.92;;;3.30;;
47824;SDS011;33589;48.242;14.676;2024-01-06T05:55:00;3.70;;;2.85;;
47824;SDS011;33589;48.242;14.676;2024-01-06T05:57:25;5.45;;;3.20;;
47824;SDS011;33589;48.242;14.676;2024-01-06T05:59:51;4.97;;;3.13;;
47824;SDS011;33589;48.242;14.676;2024-01-06T06:02:17;3.47;;;3.05;;
47824;SDS011;33589;48.242;14.676;2024-01-06T06:04:43;3.33;;;3.00;;
47824;SDS011;33589;48.242;14.676;2024-01-06T06:07:08;4.65;;;3.35;;
47824;SDS011;33589;48.242;14.676;2024-01-06T06:09:34;3.10;;;2.80;;
47824;SDS011;33589;48.242;14.676;2024-01-06T06:12:00;3.83;;;3.20;;
47824;SDS011;33589;48.242;14.676;2024-01-06T06:14:26;3.80;;;3.22;;
47824;SDS011;33589;48.242;14.676;2024-01-06T06:16:51;4.10;;;3.08;;
47824;SDS011;33589;48.242;14.676;2024-01-06T06:19:17;3.63;;;3.00;;
47824;SDS011;33589;48.242;14.676;2024-01-06T06:21:44;3.70;;;3.20;;
47824;SDS011;33589;48.242;14.676;2024-01-06T06:24:09;3.42;;;3.13;;
47824;SDS011;33589;48.242;14.676;2024-01-06T06:26:35;4.35;;;3.00;;
47824;SDS011;33589;48.242;14.676;2024-01-06T06:29:01;4.38;;;3.30;;
47824;SDS011;33589;48.242;14.676;2024-01-06T06:31:27;4.70;;;3.15;;
47824;SDS011;33589;48.242;14.676;2024-01-06T06:33:53;4.13;;;3.15;;
47824;SDS011;33589;48.242;14.676;2024-01-06T06:36:19;3.97;;;2.97;;
47824;SDS011;33589;48.242;14.676;2024-01-06T06:38:45;3.67;;;3.08;;
47824;SDS011;33589;48.242;14.676;2024-01-06T06:41:10;3.92;;;3.22;;
47824;SDS011;33589;48.242;14.676;2024-01-06T06:43:36;3.30;;;2.85;;
47824;SDS011;33589;48.242;14.676;2024-01-06T06:46:02;4.95;;;3.03;;
47824;SDS011;33589;48.242;14.676;2024-01-06T06:48:28;3.22;;;2.90;;
47824;SDS011;33589;48.242;14.676;2024-01-06T06:50:54;5.25;;;2.80;;
47824;SDS011;33589;48.242;14.676;2024-01-06T06:53:20;6.35;;;3.30;;
47824;SDS011;33589;48.242;14.676;2024-01-06T06:55:46;4.85;;;3.00;;
47824;SDS011;33589;48.242;14.676;2024-01-06T06:58:12;6.00;;;3.35;;
47824;SDS011;33589;48.242;14.676;2024-01-06T07:00:38;3.53;;;3.10;;
47824;SDS011;33589;48.242;14.676;2024-01-06T07:03:04;3.90;;;3.08;;
47824;SDS011;33589;48.242;14.676;2024-01-06T07:05:30;6.72;;;2.97;;
47824;SDS011;33589;48.242;14.676;2024-01-06T07:07:56;6.68;;;3.25;;
47824;SDS011;33589;48.242;14.676;2024-01-06T07:10:22;6.68;;;2.85;;
47824;SDS011;33589;48.242;14.676;2024-01-06T07:12:47;4.22;;;3.20;;
47824;SDS011;33589;48.242;14.676;2024-01-06T07:15:13;8.63;;;3.38;;
47824;SDS011;33589;48.242;14.676;2024-01-06T07:17:39;22.42;;;3.90;;
47824;SDS011;33589;48.242;14.676;2024-01-06T07:20:07;7.57;;;4.20;;
47824;SDS011;33589;48.242;14.676;2024-01-06T07:22:33;9.27;;;4.70;;
47824;SDS011;33589;48.242;14.676;2024-01-06T07:25:02;8.50;;;4.63;;
47824;SDS011;33589;48.242;14.676;2024-01-06T07:27:28;27.50;;;5.20;;
47824;SDS011;33589;48.242;14.676;2024-01-06T07:29:54;8.10;;;5.00;;
47824;SDS011;33589;48.242;14.676;2024-01-06T07:32:21;8.35;;;4.93;;
47824;SDS011;33589;48.242;14.676;2024-01-06T07:34:47;7.07;;;4.35;;
47824;SDS011;33589;48.242;14.676;2024-01-06T07:37:13;12.60;;;4.47;;
47824;SDS011;33589;48.242;14.676;2024-01-06T07:39:39;7.90;;;4.82;;
47824;SDS011;33589;48.242;14.676;2024-01-06T07:42:04;8.23;;;4.32;;
47824;SDS011;33589;48.242;14.676;2024-01-06T07:44:30;10.15;;;5.10;;
47824;SDS011;33589;48.242;14.676;2024-01-06T07:46:56;9.95;;;5.00;;
47824;SDS011;33589;48.242;14.676;2024-01-06T07:49:22;9.73;;;4.50;;
47824;SDS011;33589;48.242;14.676;2024-01-06T07:51:47;9.00;;;4.65;;
47824;SDS011;33589;48.242;14.676;2024-01-06T07:54:13;10.27;;;4.72;;
47824;SDS011;33589;48.242;14.676;2024-01-06T07:56:39;9.63;;;4.67;;
47824;SDS011;33589;48.242;14.676;2024-01-06T07:59:05;12.52;;;5.05;;
47824;SDS011;33589;48.242;14.676;2024-01-06T08:01:31;6.45;;;4.18;;
47824;SDS011;33589;48.242;14.676;2024-01-06T08:03:57;17.52;;;4.70;;
47824;SDS011;33589;48.242;14.676;2024-01-06T08:06:23;8.52;;;4.22;;
47824;SDS011;33589;48.242;14.676;2024-01-06T08:08:50;12.77;;;4.32;;
47824;SDS011;33589;48.242;14.676;2024-01-06T08:11:16;8.10;;;4.40;;
47824;SDS011;33589;48.242;14.676;2024-01-06T08:13:42;14.13;;;5.28;;
47824;SDS011;33589;48.242;14.676;2024-01-06T08:16:07;10.40;;;4.95;;
47824;SDS011;33589;48.242;14.676;2024-01-06T08:18:33;16.13;;;5.40;;
47824;SDS011;33589;48.242;14.676;2024-01-06T08:20:59;9.98;;;4.95;;
47824;SDS011;33589;48.242;14.676;2024-01-06T08:23:24;13.48;;;4.40;;
47824;SDS011;33589;48.242;14.676;2024-01-06T08:25:51;11.68;;;4.60;;
47824;SDS011;33589;48.242;14.676;2024-01-06T08:28:17;12.73;;;5.30;;
47824;SDS011;33589;48.242;14.676;2024-01-06T08:30:44;12.82;;;4.47;;
47824;SDS011;33589;48.242;14.676;2024-01-06T08:33:10;11.77;;;4.70;;
47824;SDS011;33589;48.242;14.676;2024-01-06T08:35:36;11.65;;;4.72;;
47824;SDS011;33589;48.242;14.676;2024-01-06T08:38:08;10.85;;;4.82;;
47824;SDS011;33589;48.242;14.676;2024-01-06T08:40:34;5.97;;;4.18;;
47824;SDS011;33589;48.242;14.676;2024-01-06T08:43:01;8.85;;;4.80;;
47824;SDS011;33589;48.242;14.676;2024-01-06T08:45:27;8.93;;;4.53;;
47824;SDS011;33589;48.242;14.676;2024-01-06T08:47:53;7.25;;;4.70;;
47824;SDS011;33589;48.242;14.676;2024-01-06T08:50:19;9.25;;;4.20;;
47824;SDS011;33589;48.242;14.676;2024-01-06T08:52:45;8.07;;;3.83;;
47824;SDS011;33589;48.242;14.676;2024-01-06T08:55:10;6.32;;;4.10;;
47824;SDS011;33589;48.242;14.676;2024-01-06T08:57:37;7.80;;;4.55;;
47824;SDS011;33589;48.242;14.676;2024-01-06T09:00:06;7.53;;;4.20;;
47824;SDS011;33589;48.242;14.676;2024-01-06T09:02:34;11.75;;;4.15;;
47824;SDS011;33589;48.242;14.676;2024-01-06T09:05:00;10.73;;;4.57;;
47824;SDS011;33589;48.242;14.676;2024-01-06T09:07:25;11.77;;;4.40;;
47824;SDS011;33589;48.242;14.676;2024-01-06T09:09:51;9.80;;;4.03;;
47824;SDS011;33589;48.242;14.676;2024-01-06T09:12:17;9.98;;;4.43;;
47824;SDS011;33589;48.242;14.676;2024-01-06T09:14:42;9.07;;;4.20;;
47824;SDS011;33589;48.242;14.676;2024-01-06T09:17:08;6.68;;;4.32;;
47824;SDS011;33589;48.242;14.676;2024-01-06T09:19:34;8.73;;;4.70;;
47824;SDS011;33589;48.242;14.676;2024-01-06T09:22:00;6.38;;;3.70;;
47824;SDS011;33589;48.242;14.676;2024-01-06T09:24:26;10.25;;;4.20;;
47824;SDS011;33589;48.242;14.676;2024-01-06T09:26:51;6.85;;;4.05;;
47824;SDS011;33589;48.242;14.676;2024-01-06T09:29:17;6.40;;;4.40;;
47824;SDS011;33589;48.242;14.676;2024-01-06T09:31:43;8.02;;;3.97;;
47824;SDS011;33589;48.242;14.676;2024-01-06T09:34:09;7.45;;;4.07;;
47824;SDS011;33589;48.242;14.676;2024-01-06T09:36:35;6.43;;;4.07;;
47824;SDS011;33589;48.242;14.676;2024-01-06T09:39:01;7.82;;;4.07;;
47824;SDS011;33589;48.242;14.676;2024-01-06T09:41:27;8.30;;;3.92;;
47824;SDS011;33589;48.242;14.676;2024-01-06T09:43:53;6.28;;;3.65;;
47824;SDS011;33589;48.242;14.676;2024-01-06T09:46:26;9.07;;;4.30;;
47824;SDS011;33589;48.242;14.676;2024-01-06T09:48:53;7.95;;;4.03;;
47824;SDS011;33589;48.242;14.676;2024-01-06T09:51:20;6.57;;;4.07;;
47824;SDS011;33589;48.242;14.676;2024-01-06T09:53:51;8.85;;;4.38;;
47824;SDS011;33589;48.242;14.676;2024-01-06T09:56:25;11.18;;;3.95;;
47824;SDS011;33589;48.242;14.676;2024-01-06T09:58:53;6.55;;;4.13;;
47824;SDS011;33589;48.242;14.676;2024-01-06T10:01:20;8.20;;;4.38;;
47824;SDS011;33589;48.242;14.676;2024-01-06T10:03:46;6.15;;;3.75;;
47824;SDS011;33589;48.242;14.676;2024-01-06T10:06:15;8.70;;;4.03;;
47824;SDS011;33589;48.242;14.676;2024-01-06T10:08:44;6.47;;;3.88;;
47824;SDS011;33589;48.242;14.676;2024-01-06T10:11:14;6.80;;;3.45;;
47824;SDS011;33589;48.242;14.676;2024-01-06T10:13:40;7.13;;;3.95;;
47824;SDS011;33589;48.242;14.676;2024-01-06T10:16:06;7.60;;;3.90;;
47824;SDS011;33589;48.242;14.676;2024-01-06T10:18:32;9.13;;;4.30;;
47824;SDS011;33589;48.242;14.676;2024-01-06T10:20:59;7.43;;;4.05;;
47824;SDS011;33589;48.242;14.676;2024-01-06T10:23:28;8.57;;;3.85;;
47824;SDS011;33589;48.242;14.676;2024-01-06T10:25:54;7.47;;;3.95;;
47824;SDS011;33589;48.242;14.676;2024-01-06T10:28:21;8.20;;;3.85;;
47824;SDS011;33589;48.242;14.676;2024-01-06T10:30:48;8.35;;;4.00;;
47824;SDS011;33589;48.242;14.676;2024-01-06T10:33:16;6.38;;;3.95;;
47824;SDS011;33589;48.242;14.676;2024-01-06T10:35:42;7.00;;;3.65;;
47824;SDS011;33589;48.242;14.676;2024-01-06T10:38:09;4.82;;;3.55;;
47824;SDS011;33589;48.242;14.676;2024-01-06T10:40:35;5.75;;;3.92;;
47824;SDS011;33589;48.242;14.676;2024-01-06T10:43:01;7.72;;;3.67;;
47824;SDS011;33589;48.242;14.676;2024-01-06T10:45:28;6.78;;;3.50;;
47824;SDS011;33589;48.242;14.676;2024-01-06T10:47:57;7.88;;;4.15;;
47824;SDS011;33589;48.242;14.676;2024-01-06T10:50:24;7.07;;;3.65;;
47824;SDS011;33589;48.242;14.676;2024-01-06T10:52:53;6.57;;;3.67;;
47824;SDS011;33589;48.242;14.676;2024-01-06T10:55:21;8.48;;;3.60;;
47824;SDS011;33589;48.242;14.676;2024-01-06T10:57:49;9.50;;;4.28;;
47824;SDS011;33589;48.242;14.676;2024-01-06T11:00:17;6.63;;;3.95;;
47824;SDS011;33589;48.242;14.676;2024-01-06T11:02:43;5.10;;;3.80;;
47824;SDS011;33589;48.242;14.676;2024-01-06T11:05:11;6.15;;;4.18;;
47824;SDS011;33589;48.242;14.676;2024-01-06T11:07:38;6.45;;;3.67;;
47824;SDS011;33589;48.242;14.676;2024-01-06T11:10:10;5.32;;;3.58;;
47824;SDS011;33589;48.242;14.676;2024-01-06T11:12:41;9.45;;;4.10;;
47824;SDS011;33589;48.242;14.676;2024-01-06T11:15:07;8.50;;;4.45;;
47824;SDS011;33589;48.242;14.676;2024-01-06T11:20:21;7.82;;;4.18;;
47824;SDS011;33589;48.242;14.676;2024-01-06T11:22:47;6.97;;;4.30;;
47824;SDS011;33589;48.242;14.676;2024-01-06T11:25:14;12.00;;;5.80;;
47824;SDS011;33589;48.242;14.676;2024-01-06T11:27:45;15.35;;;6.15;;
47824;SDS011;33589;48.242;14.676;2024-01-06T11:30:19;22.08;;;7.70;;
47824;SDS011;33589;48.242;14.676;2024-01-06T11:32:45;20.17;;;7.78;;
47824;SDS011;33589;48.242;14.676;2024-01-06T11:35:12;25.27;;;9.70;;
47824;SDS011;33589;48.242;14.676;2024-01-06T11:42:42;22.92;;;8.40;;
47824;SDS011;33589;48.242;14.676;2024-01-06T11:45:08;22.42;;;8.23;;
47824;SDS011;33589;48.242;14.676;2024-01-06T11:47:34;23.42;;;8.50;;
47824;SDS011;33589;48.242;14.676;2024-01-06T11:50:01;21.48;;;7.93;;
47824;SDS011;33589;48.242;14.676;2024-01-06T11:52:30;26.67;;;8.35;;
47824;SDS011;33589;48.242;14.676;2024-01-06T11:54:57;22.25;;;7.82;;
47824;SDS011;33589;48.242;14.676;2024-01-06T11:57:24;24.95;;;8.02;;
47824;SDS011;33589;48.242;14.676;2024-01-06T11:59:53;21.00;;;7.15;;
47824;SDS011;33589;48.242;14.676;2024-01-06T12:02:19;24.90;;;7.82;;
47824;SDS011;33589;48.242;14.676;2024-01-06T12:04:51;20.10;;;7.32;;
47824;SDS011;33589;48.242;14.676;2024-01-06T12:07:18;19.80;;;7.75;;
47824;SDS011;33589;48.242;14.676;2024-01-06T12:09:48;22.02;;;6.97;;
47824;SDS011;33589;48.242;14.676;2024-01-06T12:12:16;18.52;;;7.63;;
47824;SDS011;33589;48.242;14.676;2024-01-06T12:14:42;16.10;;;6.95;;
47824;SDS011;33589;48.242;14.676;2024-01-06T12:17:09;21.58;;;7.15;;
47824;SDS011;33589;48.242;14.676;2024-01-06T12:19:35;21.08;;;7.55;;
47824;SDS011;33589;48.242;14.676;2024-01-06T12:22:01;17.40;;;6.63;;
47824;SDS011;33589;48.242;14.676;2024-01-06T12:24:28;22.10;;;6.80;;
47824;SDS011;33589;48.242;14.676;2024-01-06T12:26:57;22.13;;;7.40;;
47824;SDS011;33589;48.242;14.676;2024-01-06T12:29:25;21.38;;;7.65;;
47824;SDS011;33589;48.242;14.676;2024-01-06T12:31:54;27.65;;;7.00;;
47824;SDS011;33589;48.242;14.676;2024-01-06T12:34:20;17.88;;;7.40;;
47824;SDS011;33589;48.242;14.676;2024-01-06T12:36:47;18.35;;;7.10;;
47824;SDS011;33589;48.242;14.676;2024-01-06T12:39:13;13.57;;;6.82;;
47824;SDS011;33589;48.242;14.676;2024-01-06T12:41:40;17.13;;;6.50;;
47824;SDS011;33589;48.242;14.676;2024-01-06T12:44:06;22.52;;;7.68;;
47824;SDS011;33589;48.242;14.676;2024-01-06T12:46:32;18.52;;;6.78;;
47824;SDS011;33589;48.242;14.676;2024-01-06T12:48:58;22.05;;;7.20;;
47824;SDS011;33589;48.242;14.676;2024-01-06T12:51:24;19.67;;;6.40;;
47824;SDS011;33589;48.242;14.676;2024-01-06T12:53:50;19.95;;;6.78;;
47824;SDS011;33589;48.242;14.676;2024-01-06T12:56:16;18.02;;;7.10;;
47824;SDS011;33589;48.242;14.676;2024-01-06T12:58:42;19.70;;;6.47;;
47824;SDS011;33589;48.242;14.676;2024-01-06T13:01:09;20.02;;;6.80;;
47824;SDS011;33589;48.242;14.676;2024-01-06T13:03:35;21.67;;;6.82;;
47824;SDS011;33589;48.242;14.676;2024-01-06T13:06:01;14.07;;;6.80;;
47824;SDS011;33589;48.242;14.676;2024-01-06T13:08:27;17.50;;;6.70;;
47824;SDS011;33589;48.242;14.676;2024-01-06T13:10:54;16.33;;;6.53;;
47824;SDS011;33589;48.242;14.676;2024-01-06T13:13:20;21.85;;;7.22;;
47824;SDS011;33589;48.242;14.676;2024-01-06T13:15:46;15.48;;;6.55;;
47824;SDS011;33589;48.242;14.676;2024-01-06T13:18:12;21.48;;;5.80;;
47824;SDS011;33589;48.242;14.676;2024-01-06T13:20:38;17.25;;;6.25;;
47824;SDS011;33589;48.242;14.676;2024-01-06T13:23:06;15.63;;;6.47;;
47824;SDS011;33589;48.242;14.676;2024-01-06T13:25:32;17.10;;;6.70;;
47824;SDS011;33589;48.242;14.676;2024-01-06T13:27:58;19.60;;;6.53;;
47824;SDS011;33589;48.242;14.676;2024-01-06T13:30:25;15.88;;;6.68;;
47824;SDS011;33589;48.242;14.676;2024-01-06T13:32:51;15.00;;;6.10;;
47824;SDS011;33589;48.242;14.676;2024-01-06T13:35:20;14.73;;;6.00;;
47824;SDS011;33589;48.242;14.676;2024-01-06T13:37:50;18.25;;;6.88;;
47824;SDS011;33589;48.242;14.676;2024-01-06T13:40:21;18.20;;;6.10;;
47824;SDS011;33589;48.242;14.676;2024-01-06T13:42:50;15.15;;;6.30;;
47824;SDS011;33589;48.242;14.676;2024-01-06T13:45:17;14.18;;;5.80;;
47824;SDS011;33589;48.242;14.676;2024-01-06T13:47:43;13.82;;;6.40;;
47824;SDS011;33589;48.242;14.676;2024-01-06T13:50:11;15.63;;;6.50;;
47824;SDS011;33589;48.242;14.676;2024-01-06T13:52:37;12.65;;;5.72;;
47824;SDS011;33589;48.242;14.676;2024-01-06T13:55:04;16.27;;;6.50;;
47824;SDS011;33589;48.242;14.676;2024-01-06T13:57:30;13.73;;;6.15;;
47824;SDS011;33589;48.242;14.676;2024-01-06T13:59:56;15.27;;;6.00;;
47824;SDS011;33589;48.242;14.676;2024-01-06T14:02:22;14.23;;;5.80;;
47824;SDS011;33589;48.242;14.676;2024-01-06T14:04:48;14.93;;;6.18;;
47824;SDS011;33589;48.242;14.676;2024-01-06T14:07:15;14.32;;;5.88;;
47824;SDS011;33589;48.242;14.676;2024-01-06T14:09:44;11.55;;;5.40;;
47824;SDS011;33589;48.242;14.676;2024-01-06T14:12:13;16.70;;;6.22;;
47824;SDS011;33589;48.242;14.676;2024-01-06T14:14:39;17.58;;;6.22;;
47824;SDS011;33589;48.242;14.676;2024-01-06T14:17:08;29.60;;;6.65;;
47824;SDS011;33589;48.242;14.676;2024-01-06T14:19:34;12.45;;;6.40;;
47824;SDS011;33589;48.242;14.676;2024-01-06T14:22:00;14.82;;;6.25;;
47824;SDS011;33589;48.242;14.676;2024-01-06T14:24:26;15.50;;;6.00;;
47824;SDS011;33589;48.242;14.676;2024-01-06T14:26:52;12.70;;;5.43;;
47824;SDS011;33589;48.242;14.676;2024-01-06T14:29:19;18.38;;;6.05;;
47824;SDS011;33589;48.242;14.676;2024-01-06T14:31:44;14.75;;;5.43;;
47824;SDS011;33589;48.242;14.676;2024-01-06T14:34:10;13.23;;;5.47;;